This is the latest recevied weather packets stored in our database for station/object G6LTT-13. If no packets are shown the sender has not sent any weather packets the latest 10 day(s).
| Time | Temp. | Humidity | Pressure | Rain* | Wind** | Luminosity | Snow |
|---|---|---|---|---|---|---|---|
| 1777766680 | 13.33° C | 86% | 1038.5 hPa | 0 mm | - | - | - |
| 1777764880 | 13.89° C | 85% | 1038.8 hPa | 0 mm | - | - | - |
| 1777763080 | 13.89° C | 84% | 1039.1 hPa | 0 mm | - | - | - |
| 1777761280 | 14.44° C | 83% | 1039 hPa | 0 mm | - | - | - |
| 1777759480 | 14.44° C | 82% | 1039.1 hPa | 0 mm | - | - | - |
| 1777757680 | 14.44° C | 82% | 1039.3 hPa | 0 mm | - | - | - |
| 1777755880 | 15.56° C | 80% | 1039.4 hPa | 0 mm | - | - | - |
| 1777754080 | 15.56° C | 79% | 1039.6 hPa | 0 mm | - | - | - |
| 1777752280 | 15.56° C | 79% | 1040 hPa | 0 mm | - | - | - |
| 1777750480 | 15.56° C | 79% | 1039.9 hPa | 0 mm | - | - | - |
| 1777748680 | 15.56° C | 82% | 1039.8 hPa | 0 mm | - | - | - |
| 1777746880 | 15° C | 83% | 1040 hPa | 0 mm | - | - | - |
| 1777745080 | 15° C | 85% | 1040.1 hPa | 0.25 mm | - | - | - |
| 1777743280 | 15° C | 82% | 1040.5 hPa | 0.51 mm | - | - | - |
| 1777741480 | 16.67° C | 73% | 1040.9 hPa | 0.25 mm | - | - | - |
| 1777739680 | 20.56° C | 45% | 1040.2 hPa | 0 mm | - | - | - |
| 1777737880 | 21.11° C | 45% | 1040.5 hPa | 0 mm | - | - | - |
| 1777734280 | 22.22° C | 39% | 1041.5 hPa | 0 mm | - | - | - |
| 1777732480 | 22.78° C | 37% | 1042 hPa | 0 mm | - | - | - |
| 1777730680 | 22.22° C | 37% | 1042.6 hPa | 0 mm | - | - | - |
| 1777728880 | 21.11° C | 38% | 1043.1 hPa | 0 mm | - | - | - |
| 1777727080 | 21.67° C | 40% | 1043.4 hPa | 0 mm | - | - | - |
| 1777725280 | 21.11° C | 40% | 1043.7 hPa | 0 mm | - | - | - |
| 1777723480 | 20° C | 40% | 1044.3 hPa | 0 mm | - | - | - |
| 1777721680 | 18.89° C | 44% | 1044.8 hPa | 0 mm | - | - | - |
* Rain latest hour (hover to see other rain measurements)
** Current wind speed in m/s (hover to see current wind gust speed)